createdAt,value
2018-02-04T00:00:38.885Z,11.43
2018-02-04T00:03:06.458Z,11.39
2018-02-04T00:05:34.082Z,11.34
2018-02-04T00:08:01.719Z,11.24
2018-02-04T00:10:29.298Z,11.17
2018-02-04T00:12:57.007Z,11.11
2018-02-04T00:15:24.644Z,11.03
2018-02-04T00:17:52.220Z,11.12
2018-02-04T00:20:19.850Z,11.12
2018-02-04T00:22:47.478Z,11.17
2018-02-04T00:25:15.076Z,11.27
2018-02-04T00:27:42.701Z,11.40
2018-02-04T00:30:10.314Z,11.49
2018-02-04T00:32:37.884Z,11.51
2018-02-04T00:35:05.450Z,11.54
2018-02-04T00:37:33.025Z,11.56
2018-02-04T00:40:00.572Z,11.57
2018-02-04T00:42:28.147Z,11.55
2018-02-04T00:44:55.717Z,11.54
2018-02-04T00:47:23.330Z,11.51
2018-02-04T00:49:50.975Z,11.50
2018-02-04T00:52:18.595Z,11.55
2018-02-04T00:54:47.026Z,11.46
2018-02-04T00:57:14.566Z,11.48
2018-02-04T00:59:42.148Z,11.47
2018-02-04T01:02:09.767Z,11.46
2018-02-04T01:04:37.386Z,11.41
2018-02-04T01:07:05.059Z,11.44
2018-02-04T01:09:32.626Z,11.48
2018-02-04T01:12:00.193Z,11.52
2018-02-04T01:14:27.749Z,11.47
2018-02-04T01:16:55.332Z,11.42
2018-02-04T01:19:22.964Z,11.40
2018-02-04T01:21:50.676Z,11.39
2018-02-04T01:24:18.251Z,11.39
2018-02-04T01:26:45.818Z,11.44
2018-02-04T01:29:13.414Z,11.45
2018-02-04T01:31:41.039Z,11.47
2018-02-04T01:34:08.612Z,11.43
2018-02-04T01:36:36.246Z,11.46
2018-02-04T01:39:03.999Z,11.39
2018-02-04T01:41:31.622Z,11.29
2018-02-04T01:43:59.202Z,11.20
2018-02-04T01:46:26.848Z,11.12
2018-02-04T01:48:54.414Z,11.04
2018-02-04T01:51:22.053Z,10.99
2018-02-04T01:53:49.601Z,10.99
2018-02-04T01:56:17.202Z,10.95
2018-02-04T01:58:44.839Z,10.90
2018-02-04T02:01:12.425Z,10.89
2018-02-04T02:03:39.999Z,10.89
2018-02-04T02:06:07.561Z,10.84
2018-02-04T02:08:35.130Z,10.81
2018-02-04T02:11:02.755Z,10.72
2018-02-04T02:13:30.361Z,10.61
2018-02-04T02:15:57.970Z,10.48
2018-02-04T02:18:25.522Z,10.37
2018-02-04T02:20:53.162Z,10.27
2018-02-04T02:23:20.725Z,10.19
2018-02-04T02:25:48.290Z,10.10
2018-02-04T02:28:15.846Z,9.99
2018-02-04T02:30:43.515Z,9.90
2018-02-04T02:33:11.124Z,9.91
2018-02-04T02:35:38.681Z,9.93
2018-02-04T02:38:06.303Z,9.89
2018-02-04T02:40:33.861Z,9.89
2018-02-04T02:43:01.425Z,9.90
2018-02-04T02:45:28.980Z,9.95
2018-02-04T02:47:56.590Z,9.95
2018-02-04T02:50:24.206Z,9.94
2018-02-04T02:52:52.490Z,9.93
2018-02-04T02:55:20.053Z,9.90
2018-02-04T02:57:47.735Z,9.95
2018-02-04T03:00:15.321Z,9.96
2018-02-04T03:02:42.879Z,9.96
2018-02-04T03:05:10.487Z,9.96
2018-02-04T03:07:38.098Z,9.98
2018-02-04T03:10:05.657Z,10.01
2018-02-04T03:12:33.222Z,9.96
2018-02-04T03:15:00.774Z,9.95
2018-02-04T03:17:28.344Z,9.99
2018-02-04T03:19:55.897Z,9.98
2018-02-04T03:22:23.562Z,9.98
2018-02-04T03:24:51.161Z,10.02
2018-02-04T03:27:18.726Z,10.00
2018-02-04T03:29:46.293Z,10.04
2018-02-04T03:32:13.850Z,10.00
2018-02-04T03:34:41.426Z,10.04
2018-02-04T03:37:08.988Z,10.08
2018-02-04T03:39:36.602Z,10.11
2018-02-04T03:42:04.162Z,10.14
2018-02-04T03:44:31.700Z,10.12
2018-02-04T03:46:59.281Z,10.14
2018-02-04T03:49:26.877Z,10.16
2018-02-04T03:51:54.446Z,10.20
2018-02-04T03:54:22.010Z,10.18
2018-02-04T03:56:49.609Z,10.20
2018-02-04T03:59:17.167Z,10.16
2018-02-04T04:01:44.728Z,10.19
2018-02-04T04:04:12.308Z,10.18
2018-02-04T04:06:39.876Z,10.20
2018-02-04T04:09:07.446Z,10.15
2018-02-04T04:11:35.090Z,10.16
2018-02-04T04:14:02.716Z,10.12
2018-02-04T04:16:30.338Z,10.14
2018-02-04T04:18:57.918Z,10.20
2018-02-04T04:21:25.492Z,10.15
2018-02-04T04:23:53.110Z,10.18
2018-02-04T04:26:20.743Z,10.19
2018-02-04T04:28:48.308Z,10.17
2018-02-04T04:31:15.918Z,10.18
2018-02-04T04:33:43.560Z,10.20
2018-02-04T04:36:11.185Z,10.20
2018-02-04T04:38:38.758Z,10.18
2018-02-04T04:41:06.326Z,10.16
2018-02-04T04:43:33.897Z,10.14
2018-02-04T04:46:01.449Z,10.06
2018-02-04T04:48:29.066Z,10.01
2018-02-04T04:50:56.634Z,10.05
2018-02-04T04:53:24.200Z,10.06
2018-02-04T04:55:51.883Z,10.05
2018-02-04T04:58:19.446Z,10.05
2018-02-04T05:00:47.020Z,10.04
2018-02-04T05:03:14.683Z,10.05
2018-02-04T05:05:42.269Z,10.08
2018-02-04T05:08:09.827Z,10.03
2018-02-04T05:10:37.391Z,10.05
2018-02-04T05:13:04.976Z,10.03
2018-02-04T05:15:32.598Z,10.02
2018-02-04T05:18:00.241Z,9.99
2018-02-04T05:20:27.861Z,10.04
2018-02-04T05:22:55.466Z,10.02
2018-02-04T05:25:23.083Z,10.00
2018-02-04T05:27:50.641Z,9.97
2018-02-04T05:30:18.202Z,9.98
2018-02-04T05:32:45.813Z,9.94
2018-02-04T05:35:13.438Z,9.91
2018-02-04T05:37:40.991Z,9.84
2018-02-04T05:40:08.606Z,9.84
2018-02-04T05:42:36.165Z,9.87
2018-02-04T05:45:03.706Z,9.88
2018-02-04T05:47:31.303Z,9.87
2018-02-04T05:49:58.973Z,9.90
2018-02-04T05:52:26.528Z,9.90
2018-02-04T05:54:54.138Z,9.82
2018-02-04T05:57:21.853Z,9.78
2018-02-04T05:59:49.457Z,9.75
2018-02-04T06:02:17.005Z,9.71
2018-02-04T06:04:44.570Z,9.72
2018-02-04T06:07:12.136Z,9.64
2018-02-04T06:09:39.739Z,9.68
2018-02-04T06:12:07.355Z,9.70
2018-02-04T06:14:34.955Z,9.75
2018-02-04T06:17:02.582Z,9.77
2018-02-04T06:19:30.251Z,9.70
2018-02-04T06:21:57.967Z,9.74
2018-02-04T06:24:25.570Z,9.75
2018-02-04T06:26:53.186Z,9.72
2018-02-04T06:29:20.826Z,9.70
2018-02-04T06:31:48.508Z,9.74
2018-02-04T06:34:16.158Z,9.74
2018-02-04T06:36:43.789Z,9.76
2018-02-04T06:39:11.348Z,9.81
2018-02-04T06:41:38.922Z,9.80
2018-02-04T06:44:06.550Z,9.81
2018-02-04T06:46:34.179Z,9.72
2018-02-04T06:49:01.735Z,9.71
2018-02-04T06:51:29.335Z,9.69
2018-02-04T06:53:56.889Z,9.68
2018-02-04T06:56:24.442Z,9.62
2018-02-04T06:58:52.062Z,9.58
2018-02-04T07:01:19.665Z,9.53
2018-02-04T07:03:47.343Z,9.45
2018-02-04T07:06:14.938Z,9.39
2018-02-04T07:08:42.497Z,9.37
2018-02-04T07:11:10.131Z,9.32
2018-02-04T07:13:37.743Z,9.35
2018-02-04T07:16:05.310Z,9.25
2018-02-04T07:18:32.870Z,9.20
2018-02-04T07:21:00.485Z,9.21
2018-02-04T07:23:28.111Z,9.23
2018-02-04T07:25:55.666Z,9.25
2018-02-04T07:28:23.240Z,9.23
2018-02-04T07:30:50.810Z,9.22
2018-02-04T07:33:18.391Z,9.23
2018-02-04T07:35:46.036Z,9.19
2018-02-04T07:38:13.657Z,9.19
2018-02-04T07:40:41.228Z,9.21
2018-02-04T07:43:08.852Z,9.23
2018-02-04T07:45:36.522Z,9.26
2018-02-04T07:48:04.088Z,9.30
2018-02-04T07:50:31.682Z,9.35
2018-02-04T07:52:59.249Z,9.32
2018-02-04T07:55:26.828Z,9.30
2018-02-04T07:57:54.437Z,9.35
2018-02-04T08:00:22.058Z,9.29
2018-02-04T08:02:49.665Z,9.29
2018-02-04T08:05:17.217Z,9.30
2018-02-04T08:07:44.788Z,9.24
2018-02-04T08:10:12.411Z,9.19
2018-02-04T08:12:40.013Z,9.22
2018-02-04T08:15:07.649Z,9.22
2018-02-04T08:17:35.225Z,9.26
2018-02-04T08:20:02.886Z,9.24
2018-02-04T08:22:30.448Z,9.25
2018-02-04T08:24:58.076Z,9.24
2018-02-04T08:27:25.705Z,9.26
2018-02-04T08:29:53.316Z,9.27
2018-02-04T08:32:20.950Z,9.29
2018-02-04T08:34:48.508Z,9.30
2018-02-04T08:37:16.190Z,9.23
2018-02-04T08:39:43.745Z,9.26
2018-02-04T08:42:11.306Z,9.27
2018-02-04T08:44:38.874Z,9.31
2018-02-04T08:47:07.445Z,9.32
2018-02-04T08:49:35.646Z,9.36
2018-02-04T08:52:03.301Z,9.33
2018-02-04T08:54:31.027Z,9.32
2018-02-04T08:56:58.591Z,9.32
2018-02-04T08:59:26.150Z,9.31
2018-02-04T09:01:53.736Z,9.34
2018-02-04T09:04:21.307Z,9.35
2018-02-04T09:06:48.883Z,9.34
2018-02-04T09:09:16.498Z,9.38
2018-02-04T09:11:44.166Z,9.36
2018-02-04T09:14:11.734Z,9.26
2018-02-04T09:16:39.292Z,9.28
2018-02-04T09:19:06.916Z,9.29
2018-02-04T09:21:34.471Z,9.27
2018-02-04T09:24:02.113Z,9.24
2018-02-04T09:26:29.678Z,9.23
2018-02-04T09:28:57.297Z,9.17
2018-02-04T09:31:24.861Z,9.09
2018-02-04T09:33:52.483Z,9.02
2018-02-04T09:36:20.151Z,9.09
2018-02-04T09:38:47.710Z,9.07
2018-02-04T09:41:15.284Z,8.91
2018-02-04T09:43:42.911Z,8.89
2018-02-04T09:46:10.522Z,8.81
2018-02-04T09:48:38.143Z,8.66
2018-02-04T09:51:05.694Z,8.61
2018-02-04T09:53:33.262Z,8.56
2018-02-04T09:56:00.813Z,8.54
2018-02-04T09:58:28.382Z,8.63
2018-02-04T10:00:55.954Z,8.63
2018-02-04T10:03:23.539Z,8.64
2018-02-04T10:05:51.093Z,8.62
2018-02-04T10:08:18.645Z,8.50
2018-02-04T10:10:46.225Z,8.55
2018-02-04T10:13:13.851Z,8.54
2018-02-04T10:15:41.464Z,8.56
2018-02-04T10:18:09.023Z,8.54
2018-02-04T10:20:36.700Z,8.53
2018-02-04T10:23:04.327Z,8.57
2018-02-04T10:25:31.885Z,8.50
2018-02-04T10:27:59.493Z,8.43
2018-02-04T10:30:27.110Z,8.52
2018-02-04T10:32:54.744Z,8.52
2018-02-04T10:35:22.401Z,8.51
2018-02-04T10:37:50.087Z,8.54
2018-02-04T10:40:17.653Z,8.55
2018-02-04T10:42:45.249Z,8.56
2018-02-04T10:45:12.882Z,8.46
2018-02-04T10:47:40.503Z,8.47
2018-02-04T10:50:08.149Z,8.52
2018-02-04T10:52:35.774Z,8.50
2018-02-04T10:55:03.446Z,8.52
2018-02-04T10:57:31.066Z,8.55
2018-02-04T10:59:58.631Z,8.58
2018-02-04T11:02:26.204Z,8.55
2018-02-04T11:04:53.769Z,8.62
2018-02-04T11:07:21.330Z,8.62
2018-02-04T11:09:48.904Z,8.67
2018-02-04T11:12:16.547Z,8.68
2018-02-04T11:14:44.403Z,8.70
2018-02-04T11:17:11.987Z,8.64
2018-02-04T11:19:39.554Z,8.62
2018-02-04T11:22:07.106Z,8.58
2018-02-04T11:24:34.732Z,8.61
2018-02-04T11:27:02.290Z,8.63
2018-02-04T11:29:29.940Z,8.63
2018-02-04T11:31:57.588Z,8.67
2018-02-04T11:34:25.155Z,8.81
2018-02-04T11:36:52.739Z,8.86
2018-02-04T11:39:20.317Z,8.86
2018-02-04T11:41:47.892Z,8.82
2018-02-04T11:44:15.521Z,8.73
2018-02-04T11:46:43.205Z,8.84
2018-02-04T11:49:10.782Z,8.83
2018-02-04T11:51:38.379Z,8.86
2018-02-04T11:54:06.047Z,8.88
2018-02-04T11:56:33.650Z,8.87
2018-02-04T11:59:01.957Z,8.88
2018-02-04T12:01:29.588Z,8.93
2018-02-04T12:03:58.108Z,9.00
2018-02-04T12:06:26.559Z,9.08
2018-02-04T12:08:54.180Z,9.12
2018-02-04T12:11:21.749Z,9.01
2018-02-04T12:13:49.379Z,9.07
2018-02-04T12:16:17.014Z,9.21
2018-02-04T12:18:44.559Z,9.26
2018-02-04T12:21:12.134Z,9.33
2018-02-04T12:23:39.773Z,9.30
2018-02-04T12:26:07.334Z,9.21
2018-02-04T12:28:34.945Z,9.23
2018-02-04T12:31:02.521Z,9.21
2018-02-04T12:33:30.147Z,9.07
2018-02-04T12:35:57.714Z,8.96
2018-02-04T12:38:25.274Z,8.86
2018-02-04T12:40:52.907Z,8.74
2018-02-04T12:43:20.477Z,8.67
2018-02-04T12:45:48.211Z,8.44
2018-02-04T12:48:15.796Z,8.41
2018-02-04T12:50:43.417Z,8.44
2018-02-04T12:53:10.994Z,8.55
2018-02-04T12:55:38.560Z,8.67
2018-02-04T12:58:06.201Z,8.76
2018-02-04T13:00:33.829Z,8.82
2018-02-04T13:03:01.477Z,8.88
2018-02-04T13:05:29.045Z,8.93
2018-02-04T13:07:56.606Z,9.02
2018-02-04T13:10:24.192Z,8.98
2018-02-04T13:12:51.753Z,9.00
2018-02-04T13:15:19.334Z,9.05
2018-02-04T13:17:46.899Z,9.14
2018-02-04T13:20:14.578Z,9.20
2018-02-04T13:22:42.140Z,9.14
2018-02-04T13:25:09.710Z,9.08
2018-02-04T13:27:37.280Z,9.13
2018-02-04T13:30:04.853Z,9.03
2018-02-04T13:32:32.478Z,8.96
2018-02-04T13:35:00.040Z,8.96
2018-02-04T13:37:27.683Z,8.75
2018-02-04T13:39:55.257Z,8.69
2018-02-04T13:42:22.840Z,8.55
2018-02-04T13:44:50.468Z,8.54
2018-02-04T13:47:18.085Z,8.55
2018-02-04T13:49:45.700Z,8.63
2018-02-04T13:52:13.287Z,8.64
2018-02-04T13:54:40.852Z,8.76
2018-02-04T13:57:08.494Z,8.81
2018-02-04T13:59:36.123Z,8.87
2018-02-04T14:02:03.692Z,8.97
2018-02-04T14:04:31.257Z,9.03
2018-02-04T14:06:58.906Z,8.95
2018-02-04T14:09:26.523Z,8.88
2018-02-04T14:11:54.090Z,8.82
2018-02-04T14:14:21.650Z,8.84
2018-02-04T14:16:49.253Z,8.84
2018-02-04T14:19:16.880Z,8.90
2018-02-04T14:21:44.518Z,8.94
2018-02-04T14:24:12.127Z,8.94
2018-02-04T14:26:39.698Z,8.93
2018-02-04T14:29:07.262Z,8.94
2018-02-04T14:31:34.844Z,8.98
2018-02-04T14:34:02.441Z,8.97
2018-02-04T14:36:30.072Z,8.99
2018-02-04T14:38:57.644Z,9.03
2018-02-04T14:41:25.272Z,9.09
2018-02-04T14:43:53.886Z,9.15
2018-02-04T14:46:21.559Z,9.13
2018-02-04T14:48:49.192Z,9.08
2018-02-04T14:51:16.750Z,9.05
2018-02-04T14:53:44.352Z,9.00
2018-02-04T14:56:11.979Z,9.00
2018-02-04T14:58:39.554Z,8.97
2018-02-04T15:01:07.125Z,8.93
2018-02-04T15:03:34.843Z,8.86
2018-02-04T15:06:02.440Z,8.78
2018-02-04T15:08:30.000Z,8.68
2018-02-04T15:10:57.666Z,8.62
2018-02-04T15:13:25.290Z,8.53
2018-02-04T15:15:52.911Z,8.42
2018-02-04T15:18:20.641Z,8.37
2018-02-04T15:20:48.433Z,8.26
2018-02-04T15:23:16.081Z,8.15
2018-02-04T15:25:44.661Z,8.05
2018-02-04T15:28:12.382Z,8.05
2018-02-04T15:30:40.114Z,7.99
2018-02-04T15:33:07.854Z,7.90
2018-02-04T15:35:35.540Z,7.90
2018-02-04T15:38:03.176Z,7.94
2018-02-04T15:40:30.798Z,7.99
2018-02-04T15:42:59.413Z,7.88
2018-02-04T15:45:27.819Z,7.84
2018-02-04T15:47:56.107Z,7.77
2018-02-04T15:50:23.685Z,7.67
2018-02-04T15:52:51.263Z,7.64
2018-02-04T15:55:18.908Z,7.59
2018-02-04T15:57:46.651Z,7.49
2018-02-04T16:00:14.273Z,7.38
2018-02-04T16:02:41.906Z,7.28
2018-02-04T16:05:09.546Z,7.29
2018-02-04T16:07:37.170Z,7.32
2018-02-04T16:10:04.752Z,7.37
2018-02-04T16:12:32.439Z,7.44
2018-02-04T16:15:00.148Z,7.48
2018-02-04T16:17:27.828Z,7.48
2018-02-04T16:19:55.458Z,7.49
2018-02-04T16:22:23.056Z,7.51
2018-02-04T16:24:50.710Z,7.54
2018-02-04T16:27:18.285Z,7.61
2018-02-04T16:29:45.937Z,7.61
2018-02-04T16:32:13.491Z,7.62
2018-02-04T16:34:41.066Z,7.68
2018-02-04T16:37:08.664Z,7.74
2018-02-04T16:39:36.225Z,7.78
2018-02-04T16:42:03.802Z,7.78
2018-02-04T16:44:31.380Z,7.76
2018-02-04T16:46:59.170Z,7.68
2018-02-04T16:49:26.790Z,7.64
2018-02-04T16:51:54.354Z,7.55
2018-02-04T16:54:22.004Z,7.54
2018-02-04T16:56:49.631Z,7.51
2018-02-04T16:59:17.216Z,7.44
2018-02-04T17:01:44.882Z,7.38
2018-02-04T17:04:12.521Z,7.29
2018-02-04T17:06:40.096Z,7.25
2018-02-04T17:09:07.755Z,7.13
2018-02-04T17:11:35.332Z,7.00
2018-02-04T17:14:02.966Z,7.00
2018-02-04T17:16:30.548Z,7.00
2018-02-04T17:18:58.174Z,6.94
2018-02-04T17:21:25.868Z,6.92
2018-02-04T17:23:53.436Z,6.85
2018-02-04T17:26:21.006Z,6.83
2018-02-04T17:28:48.586Z,6.75
2018-02-04T17:31:16.191Z,6.77
2018-02-04T17:33:43.829Z,6.78
2018-02-04T17:36:11.407Z,6.74
2018-02-04T17:38:39.023Z,6.58
2018-02-04T17:41:06.676Z,6.63
2018-02-04T17:43:34.247Z,6.55
2018-02-04T17:46:01.823Z,6.47
2018-02-04T17:48:29.474Z,6.45
2018-02-04T17:50:57.103Z,6.40
2018-02-04T17:53:24.715Z,6.44
2018-02-04T17:55:52.382Z,6.53
2018-02-04T17:58:20.010Z,6.49
2018-02-04T18:00:47.586Z,6.57
2018-02-04T18:03:15.159Z,6.45
2018-02-04T18:05:42.730Z,6.40
2018-02-04T18:08:10.365Z,6.32
2018-02-04T18:10:37.986Z,6.32
2018-02-04T18:13:05.610Z,6.28
2018-02-04T18:15:33.188Z,6.22
2018-02-04T18:18:01.547Z,6.26
2018-02-04T18:20:29.123Z,6.18
2018-02-04T18:22:56.743Z,6.20
2018-02-04T18:25:24.322Z,6.11
2018-02-04T18:27:51.910Z,6.06
2018-02-04T18:30:19.698Z,6.02
2018-02-04T18:32:47.272Z,5.99
2018-02-04T18:35:14.841Z,5.94
2018-02-04T18:37:42.427Z,5.88
2018-02-04T18:40:10.043Z,5.85
2018-02-04T18:42:37.610Z,5.81
2018-02-04T18:45:05.250Z,5.73
2018-02-04T18:47:32.890Z,5.78
2018-02-04T18:50:00.583Z,5.78
2018-02-04T18:52:28.242Z,5.72
2018-02-04T18:54:55.851Z,5.71
2018-02-04T18:57:23.472Z,5.78
2018-02-04T18:59:51.156Z,5.84
2018-02-04T19:02:18.734Z,5.85
2018-02-04T19:04:46.559Z,5.94
2018-02-04T19:07:15.320Z,6.14
2018-02-04T19:09:42.929Z,6.07
2018-02-04T19:12:10.599Z,6.03
2018-02-04T19:14:38.357Z,6.09
2018-02-04T19:17:05.975Z,6.09
2018-02-04T19:19:33.535Z,6.02
2018-02-04T19:22:01.743Z,5.99
2018-02-04T19:24:29.628Z,5.91
2018-02-04T19:26:57.447Z,5.82
2018-02-04T19:29:25.078Z,5.78
2018-02-04T19:31:52.682Z,5.74
2018-02-04T19:34:20.323Z,5.75
2018-02-04T19:36:47.925Z,5.71
2018-02-04T19:39:15.510Z,5.61
2018-02-04T19:41:43.219Z,5.66
2018-02-04T19:44:10.833Z,5.70
2018-02-04T19:46:38.499Z,5.77
2018-02-04T19:49:06.097Z,5.79
2018-02-04T19:51:33.783Z,5.84
2018-02-04T19:54:01.353Z,5.91
2018-02-04T19:56:29.444Z,5.85
2018-02-04T19:58:57.094Z,5.87
2018-02-04T20:01:24.673Z,5.83
2018-02-04T20:03:52.376Z,5.75
2018-02-04T20:06:19.960Z,5.64
2018-02-04T20:08:47.530Z,5.46
2018-02-04T20:11:16.090Z,5.28
2018-02-04T20:13:43.692Z,5.17
2018-02-04T20:16:11.289Z,5.04
2018-02-04T20:18:38.862Z,4.90
2018-02-04T20:21:06.578Z,4.79
2018-02-04T20:23:34.202Z,4.65
2018-02-04T20:26:01.779Z,4.60
2018-02-04T20:28:29.343Z,4.45
2018-02-04T20:30:57.015Z,4.40
2018-02-04T20:33:25.626Z,4.42
2018-02-04T20:35:53.194Z,4.36
2018-02-04T20:38:21.171Z,4.19
2018-02-04T20:40:49.160Z,4.12
2018-02-04T20:43:16.743Z,4.10
2018-02-04T20:45:44.342Z,3.99
2018-02-04T20:48:11.956Z,3.95
2018-02-04T20:50:39.582Z,3.85
2018-02-04T20:53:07.239Z,3.78
2018-02-04T20:55:34.848Z,3.75
2018-02-04T20:58:02.426Z,3.74
2018-02-04T21:00:30.009Z,3.74
2018-02-04T21:02:57.597Z,3.71
2018-02-04T21:05:25.146Z,3.77
2018-02-04T21:07:52.939Z,3.82
2018-02-04T21:10:20.574Z,3.87
2018-02-04T21:12:48.241Z,3.83
2018-02-04T21:15:15.900Z,3.88
2018-02-04T21:17:43.531Z,3.88
2018-02-04T21:20:11.190Z,3.89
2018-02-04T21:22:39.084Z,3.84
2018-02-04T21:25:06.763Z,3.87
2018-02-04T21:27:34.334Z,3.89
2018-02-04T21:30:01.964Z,3.99
2018-02-04T21:32:29.555Z,3.96
2018-02-04T21:34:57.191Z,3.87
2018-02-04T21:37:24.811Z,3.94
2018-02-04T21:39:52.378Z,3.85
2018-02-04T21:42:19.999Z,3.80
2018-02-04T21:44:47.742Z,3.72
2018-02-04T21:47:15.362Z,3.66
2018-02-04T21:49:42.952Z,3.66
2018-02-04T21:52:10.528Z,3.59
2018-02-04T21:54:38.108Z,3.58
2018-02-04T21:57:06.015Z,3.48
2018-02-04T21:59:33.821Z,3.39
2018-02-04T22:02:01.459Z,3.43
2018-02-04T22:04:29.035Z,3.48
2018-02-04T22:06:56.667Z,3.54
2018-02-04T22:09:24.297Z,3.46
2018-02-04T22:11:51.935Z,3.47
2018-02-04T22:14:19.604Z,3.51
2018-02-04T22:16:47.241Z,3.46
2018-02-04T22:19:14.806Z,3.38
2018-02-04T22:21:42.443Z,3.34
2018-02-04T22:24:10.099Z,3.41
2018-02-04T22:26:37.737Z,3.42
2018-02-04T22:29:05.317Z,3.42
2018-02-04T22:31:32.901Z,3.31
2018-02-04T22:34:00.588Z,3.31
2018-02-04T22:36:28.215Z,3.42
2018-02-04T22:38:55.790Z,3.35
2018-02-04T22:41:23.362Z,3.65
2018-02-04T22:43:50.989Z,3.55
2018-02-04T22:46:18.618Z,3.49
2018-02-04T22:48:46.191Z,3.54
2018-02-04T22:51:13.839Z,3.47
2018-02-04T22:53:41.482Z,3.43
2018-02-04T22:56:09.033Z,3.42
2018-02-04T22:58:36.606Z,3.31
2018-02-04T23:01:04.175Z,3.24
2018-02-04T23:03:31.758Z,3.34
2018-02-04T23:05:59.322Z,3.21
2018-02-04T23:08:26.937Z,3.32
2018-02-04T23:10:54.515Z,3.27
2018-02-04T23:13:22.142Z,3.27
2018-02-04T23:15:49.714Z,3.34
2018-02-04T23:18:17.315Z,3.25
2018-02-04T23:20:44.930Z,3.13
2018-02-04T23:23:12.581Z,3.06
2018-02-04T23:25:40.209Z,2.98
2018-02-04T23:28:07.842Z,3.02
2018-02-04T23:30:35.466Z,3.15
2018-02-04T23:33:03.046Z,3.18
2018-02-04T23:35:30.610Z,3.05
2018-02-04T23:37:58.186Z,2.99
2018-02-04T23:40:25.734Z,2.93
2018-02-04T23:42:53.324Z,2.79
2018-02-04T23:45:20.948Z,2.70
2018-02-04T23:47:48.585Z,2.70
2018-02-04T23:50:16.162Z,2.73
2018-02-04T23:52:43.730Z,2.68
2018-02-04T23:55:11.341Z,2.56
2018-02-04T23:57:38.965Z,2.48
